Time,TemperatureF,DewpointF,PressureIn,WindDirection,WindDirectionDegrees,WindSpeedMPH,WindSpeedGustMPH,Humidity,HourlyPrecipIn,Conditions,Clouds,dailyrainin,SoftwareType,DateUTC
2013-09-15 00:07:00,58.8,48.0,29.99,South,186,1.0,5.0,68,0.00,,,0.00,weatherlink.com 1.10,2013-09-15 05:07:00,
2013-09-15 00:22:00,58.9,48.0,29.99,SSE,155,3.0,4.0,68,0.00,,,0.00,weatherlink.com 1.10,2013-09-15 05:22:00,
2013-09-15 00:37:00,59.1,48.0,29.99,SSE,154,1.0,2.0,68,0.00,,,0.00,weatherlink.com 1.10,2013-09-15 05:37:00,
2013-09-15 00:52:00,58.5,48.0,29.99,South,182,0.0,3.0,69,0.00,,,0.00,weatherlink.com 1.10,2013-09-15 05:52:00,
2013-09-15 01:07:00,57.7,49.0,29.99,South,184,0.0,1.0,72,0.00,,,0.00,weatherlink.com 1.10,2013-09-15 06:07:00,
2013-09-15 01:22:00,56.7,49.0,29.99,South,184,0.0,0.0,74,0.00,,,0.00,weatherlink.com 1.10,2013-09-15 06:22:00,
2013-09-15 01:37:00,56.1,48.0,29.99,South,183,1.0,2.0,75,0.00,,,0.00,weatherlink.com 1.10,2013-09-15 06:37:00,
2013-09-15 01:52:00,55.8,49.0,29.99,South,183,0.0,2.0,77,0.00,,,0.00,weatherlink.com 1.10,2013-09-15 06:52:00,
2013-09-15 02:07:00,55.8,49.0,29.99,South,183,1.0,2.0,77,0.00,,,0.00,weatherlink.com 1.10,2013-09-15 07:07:00,
2013-09-15 02:23:00,55.6,49.0,29.99,South,183,0.0,2.0,78,0.00,,,0.00,weatherlink.com 1.10,2013-09-15 07:23:00,
2013-09-15 02:38:00,55.3,49.0,29.99,South,183,0.0,1.0,79,0.00,,,0.00,weatherlink.com 1.10,2013-09-15 07:38:00,
2013-09-15 02:53:00,55.6,50.0,29.98,SSW,192,2.0,4.0,80,0.00,,,0.00,weatherlink.com 1.10,2013-09-15 07:53:00,
2013-09-15 03:08:00,56.5,50.0,29.99,South,190,2.0,5.0,78,0.00,,,0.00,weatherlink.com 1.10,2013-09-15 08:08:00,
2013-09-15 03:23:00,57.7,50.0,29.99,SSW,192,2.0,6.0,75,0.00,,,0.00,weatherlink.com 1.10,2013-09-15 08:23:00,
2013-09-15 03:38:00,58.2,50.0,29.99,SSW,194,4.0,6.0,75,0.00,,,0.00,weatherlink.com 1.10,2013-09-15 08:38:00,
2013-09-15 03:53:00,58.3,50.0,29.98,South,188,1.0,7.0,74,0.00,,,0.00,weatherlink.com 1.10,2013-09-15 08:53:00,
2013-09-15 04:08:00,58.5,50.0,29.98,SSW,198,2.0,6.0,74,0.00,,,0.00,weatherlink.com 1.10,2013-09-15 09:08:00,
2013-09-15 04:23:00,58.6,50.0,29.98,South,183,4.0,7.0,74,0.00,,,0.00,weatherlink.com 1.10,2013-09-15 09:23:00,
2013-09-15 04:38:00,58.7,50.0,29.98,South,186,3.0,7.0,74,0.00,,,0.00,weatherlink.com 1.10,2013-09-15 09:38:00,
2013-09-15 04:53:00,58.8,50.0,29.98,South,189,2.0,9.0,73,0.00,,,0.00,weatherlink.com 1.10,2013-09-15 09:53:00,
2013-09-15 05:08:00,59.0,50.0,29.98,SSW,205,3.0,6.0,73,0.00,,,0.00,weatherlink.com 1.10,2013-09-15 10:08:00,
2013-09-15 05:23:00,58.9,50.0,29.99,SSW,212,4.0,6.0,73,0.00,,,0.00,weatherlink.com 1.10,2013-09-15 10:23:00,
2013-09-15 05:38:00,58.7,50.0,29.98,SSW,192,5.0,8.0,74,0.00,,,0.00,weatherlink.com 1.10,2013-09-15 10:38:00,
2013-09-15 05:53:00,58.5,50.0,29.99,South,187,2.0,5.0,73,0.00,,,0.00,weatherlink.com 1.10,2013-09-15 10:53:00,
2013-09-15 06:08:00,58.8,50.0,29.99,South,186,4.0,7.0,73,0.00,,,0.00,weatherlink.com 1.10,2013-09-15 11:08:00,
2013-09-15 06:23:00,59.0,50.0,29.99,SSW,213,0.0,7.0,72,0.00,,,0.00,weatherlink.com 1.10,2013-09-15 11:23:00,
2013-09-15 06:38:00,59.3,50.0,29.99,SSE,155,6.0,9.0,72,0.00,,,0.00,weatherlink.com 1.10,2013-09-15 11:38:00,
2013-09-15 06:53:00,59.5,50.0,29.99,South,179,3.0,7.0,71,0.00,,,0.00,weatherlink.com 1.10,2013-09-15 11:53:00,
2013-09-15 07:08:00,59.6,50.0,29.99,South,176,4.0,7.0,71,0.00,,,0.00,weatherlink.com 1.10,2013-09-15 12:08:00,
2013-09-15 07:23:00,60.0,50.0,29.99,South,187,6.0,8.0,70,0.00,,,0.00,weatherlink.com 1.10,2013-09-15 12:23:00,
2013-09-15 07:38:00,60.2,50.0,29.99,SSE,161,3.0,8.0,70,0.00,,,0.00,weatherlink.com 1.10,2013-09-15 12:38:00,
2013-09-15 07:53:00,60.1,51.0,29.99,SSE,167,1.0,6.0,71,0.00,,,0.00,weatherlink.com 1.10,2013-09-15 12:53:00,
2013-09-15 08:08:00,60.4,51.0,29.99,South,178,3.0,8.0,71,0.00,,,0.00,weatherlink.com 1.10,2013-09-15 13:08:00,
2013-09-15 08:23:00,61.4,51.0,29.99,South,174,8.0,10.0,69,0.00,,,0.00,weatherlink.com 1.10,2013-09-15 13:23:00,
2013-09-15 08:38:00,63.1,51.0,29.99,SSW,192,5.0,14.0,66,0.00,,,0.00,weatherlink.com 1.10,2013-09-15 13:38:00,
2013-09-15 08:53:00,64.2,52.0,29.99,South,178,9.0,11.0,64,0.00,,,0.00,weatherlink.com 1.10,2013-09-15 13:53:00,
2013-09-15 09:08:00,65.0,52.0,29.99,SSW,199,9.0,15.0,62,0.00,,,0.00,weatherlink.com 1.10,2013-09-15 14:08:00,
2013-09-15 09:23:00,66.4,52.0,29.99,WSW,244,2.0,11.0,61,0.00,,,0.00,weatherlink.com 1.10,2013-09-15 14:23:00,
2013-09-15 09:38:00,67.9,52.0,29.99,South,182,6.0,13.0,58,0.00,,,0.00,weatherlink.com 1.10,2013-09-15 14:38:00,
2013-09-15 09:53:00,69.5,53.0,29.99,SSE,163,9.0,10.0,56,0.00,,,0.00,weatherlink.com 1.10,2013-09-15 14:53:00,
2013-09-15 10:09:00,71.0,55.0,29.99,South,187,8.0,10.0,57,0.00,,,0.00,weatherlink.com 1.10,2013-09-15 15:09:00,
2013-09-15 10:24:00,72.1,54.0,30.00,SSW,200,7.0,12.0,53,0.00,,,0.00,weatherlink.com 1.10,2013-09-15 15:24:00,
2013-09-15 10:39:00,73.0,55.0,30.00,SSW,198,6.0,12.0,53,0.00,,,0.00,weatherlink.com 1.10,2013-09-15 15:39:00,
2013-09-15 10:54:00,73.7,56.0,30.00,SSE,168,6.0,10.0,55,0.00,,,0.00,weatherlink.com 1.10,2013-09-15 15:54:00,
2013-09-15 11:09:00,75.0,56.0,30.00,SSW,196,9.0,11.0,51,0.00,,,0.00,weatherlink.com 1.10,2013-09-15 16:09:00,
2013-09-15 11:24:00,76.1,57.0,30.00,SW,233,4.0,10.0,52,0.00,,,0.00,weatherlink.com 1.10,2013-09-15 16:24:00,
2013-09-15 11:39:00,76.3,57.0,30.00,SW,214,6.0,11.0,52,0.00,,,0.00,weatherlink.com 1.10,2013-09-15 16:39:00,
2013-09-15 11:54:00,76.9,57.0,30.00,WSW,252,3.0,8.0,50,0.00,,,0.00,weatherlink.com 1.10,2013-09-15 16:54:00,
2013-09-15 12:09:00,77.9,58.0,30.00,West,276,8.0,10.0,50,0.00,,,0.00,weatherlink.com 1.10,2013-09-15 17:09:00,
2013-09-15 12:24:00,78.3,58.0,30.00,SW,229,6.0,9.0,49,0.00,,,0.00,weatherlink.com 1.10,2013-09-15 17:24:00,
2013-09-15 12:39:00,79.2,58.0,30.00,WSW,251,2.0,10.0,48,0.00,,,0.00,weatherlink.com 1.10,2013-09-15 17:39:00,
2013-09-15 12:54:00,80.2,60.0,29.99,West,260,3.0,7.0,51,0.00,,,0.00,weatherlink.com 1.10,2013-09-15 17:54:00,
2013-09-15 13:09:00,81.0,59.0,29.99,SW,233,4.0,9.0,48,0.00,,,0.00,weatherlink.com 1.10,2013-09-15 18:09:00,
2013-09-15 13:24:00,81.6,60.0,29.99,WSW,248,2.0,10.0,48,0.00,,,0.00,weatherlink.com 1.10,2013-09-15 18:24:00,
2013-09-15 13:39:00,81.3,60.0,29.99,South,190,2.0,8.0,49,0.00,,,0.00,weatherlink.com 1.10,2013-09-15 18:39:00,
2013-09-15 13:54:00,82.8,61.0,29.98,WSW,241,5.0,8.0,48,0.00,,,0.00,weatherlink.com 1.10,2013-09-15 18:54:00,
2013-09-15 14:09:00,82.9,61.0,29.98,WSW,251,0.0,9.0,48,0.00,,,0.00,weatherlink.com 1.10,2013-09-15 19:09:00,
2013-09-15 14:24:00,83.0,61.0,29.98,WNW,283,1.0,9.0,48,0.00,,,0.00,weatherlink.com 1.10,2013-09-15 19:24:00,
2013-09-15 14:39:00,83.6,62.0,29.98,West,274,3.0,7.0,48,0.00,,,0.00,weatherlink.com 1.10,2013-09-15 19:39:00,
2013-09-15 14:54:00,82.0,62.0,29.97,WNW,285,3.0,10.0,50,0.00,,,0.00,weatherlink.com 1.10,2013-09-15 19:54:00,
2013-09-15 15:09:00,81.8,62.0,29.97,WNW,292,1.0,8.0,52,0.00,,,0.00,weatherlink.com 1.10,2013-09-15 20:09:00,
2013-09-15 15:24:00,82.2,62.0,29.97,SW,223,4.0,8.0,51,0.00,,,0.00,weatherlink.com 1.10,2013-09-15 20:24:00,
2013-09-15 15:39:00,81.7,63.0,29.97,West,262,6.0,9.0,54,0.00,,,0.00,weatherlink.com 1.10,2013-09-15 20:39:00,
2013-09-15 15:54:00,81.9,62.0,29.96,SSW,211,1.0,8.0,52,0.00,,,0.00,weatherlink.com 1.10,2013-09-15 20:54:00,
2013-09-15 16:09:00,80.3,63.0,29.96,WSW,239,1.0,8.0,56,0.00,,,0.00,weatherlink.com 1.10,2013-09-15 21:09:00,
2013-09-15 16:24:00,77.1,64.0,29.95,SW,223,0.0,4.0,65,0.00,,,0.00,weatherlink.com 1.10,2013-09-15 21:24:00,
2013-09-15 16:39:00,74.5,66.0,29.95,SW,232,0.0,6.0,74,0.02,,,0.02,weatherlink.com 1.10,2013-09-15 21:39:00,
2013-09-15 16:54:00,70.2,66.0,29.95,SW,223,3.0,10.0,85,0.17,,,0.17,weatherlink.com 1.10,2013-09-15 21:54:00,
2013-09-15 17:10:00,69.0,66.0,29.97,NNW,345,0.0,4.0,91,0.17,,,0.17,weatherlink.com 1.10,2013-09-15 22:10:00,
2013-09-15 17:25:00,69.1,67.0,29.97,NNW,345,0.0,2.0,93,0.17,,,0.17,weatherlink.com 1.10,2013-09-15 22:25:00,
2013-09-15 17:40:00,69.5,68.0,29.98,NNW,340,0.0,3.0,94,0.14,,,0.17,weatherlink.com 1.10,2013-09-15 22:40:00,
2013-09-15 17:55:00,69.4,68.0,29.99,WNW,298,0.0,2.0,94,0.00,,,0.17,weatherlink.com 1.10,2013-09-15 22:55:00,
2013-09-15 18:10:00,69.3,68.0,29.99,WNW,293,1.0,4.0,94,0.00,,,0.17,weatherlink.com 1.10,2013-09-15 23:10:00,
2013-09-15 18:25:00,69.1,66.0,29.99,NNW,337,1.0,7.0,91,0.00,,,0.17,weatherlink.com 1.10,2013-09-15 23:25:00,
2013-09-15 18:40:00,68.9,66.0,30.00,NNW,337,1.0,3.0,91,0.00,,,0.17,weatherlink.com 1.10,2013-09-15 23:40:00,
2013-09-15 18:55:00,68.8,66.0,30.00,NNW,337,0.0,3.0,91,0.00,,,0.17,weatherlink.com 1.10,2013-09-15 23:55:00,
2013-09-15 19:10:00,68.6,66.0,30.00,NNW,337,0.0,2.0,91,0.00,,,0.17,weatherlink.com 1.10,2013-09-16 00:10:00,
2013-09-15 19:25:00,68.6,66.0,30.01,NNW,337,0.0,1.0,92,0.00,,,0.17,weatherlink.com 1.10,2013-09-16 00:25:00,
2013-09-15 19:40:00,68.4,66.0,30.02,NNW,337,0.0,2.0,93,0.00,,,0.17,weatherlink.com 1.10,2013-09-16 00:40:00,
2013-09-15 19:55:00,68.1,66.0,30.04,NNW,344,3.0,5.0,93,0.00,,,0.17,weatherlink.com 1.10,2013-09-16 00:55:00,
2013-09-15 20:10:00,68.5,66.0,30.02,North,9,0.0,6.0,91,0.04,,,0.21,weatherlink.com 1.10,2013-09-16 01:10:00,
2013-09-15 20:25:00,68.1,66.0,30.03,NNW,338,1.0,4.0,92,0.06,,,0.23,weatherlink.com 1.10,2013-09-16 01:25:00,
2013-09-15 20:40:00,67.7,66.0,30.04,North,360,2.0,7.0,93,0.06,,,0.23,weatherlink.com 1.10,2013-09-16 01:40:00,
2013-09-15 20:55:00,67.6,66.0,30.04,NNE,19,1.0,6.0,94,0.07,,,0.24,weatherlink.com 1.10,2013-09-16 01:55:00,
2013-09-15 21:10:00,67.4,66.0,30.05,NNW,338,5.0,6.0,94,0.04,,,0.25,weatherlink.com 1.10,2013-09-16 02:10:00,
2013-09-15 21:25:00,67.1,65.0,30.05,NNE,24,5.0,10.0,94,0.03,,,0.26,weatherlink.com 1.10,2013-09-16 02:25:00,
2013-09-15 21:40:00,66.8,65.0,30.05,North,355,4.0,5.0,94,0.03,,,0.26,weatherlink.com 1.10,2013-09-16 02:40:00,
2013-09-15 21:55:00,66.7,65.0,30.07,NNE,16,0.0,4.0,94,0.02,,,0.26,weatherlink.com 1.10,2013-09-16 02:55:00,
2013-09-15 22:10:00,66.5,65.0,30.07,North,360,2.0,4.0,95,0.01,,,0.26,weatherlink.com 1.10,2013-09-16 03:10:00,
2013-09-15 22:25:00,66.3,65.0,30.07,NNE,13,3.0,6.0,95,0.00,,,0.26,weatherlink.com 1.10,2013-09-16 03:25:00,
2013-09-15 22:40:00,66.2,65.0,30.07,NNE,17,5.0,10.0,95,0.00,,,0.26,weatherlink.com 1.10,2013-09-16 03:40:00,
2013-09-15 22:55:00,65.9,65.0,30.08,NNE,22,4.0,6.0,95,0.00,,,0.26,weatherlink.com 1.10,2013-09-16 03:55:00,
2013-09-15 23:10:00,65.9,65.0,30.08,NNE,19,1.0,7.0,95,0.00,,,0.26,weatherlink.com 1.10,2013-09-16 04:10:00,
2013-09-15 23:25:00,65.7,64.0,30.09,NNE,18,4.0,9.0,95,0.00,,,0.26,weatherlink.com 1.10,2013-09-16 04:25:00,
2013-09-15 23:40:00,65.6,64.0,30.09,NNE,15,6.0,9.0,95,0.00,,,0.26,weatherlink.com 1.10,2013-09-16 04:40:00,
2013-09-15 23:55:00,65.0,63.0,30.10,NNE,26,7.0,16.0,94,0.01,,,0.27,weatherlink.com 1.10,2013-09-16 04:55:00,